Time;durP1;ratioP1;P1;durP2;ratioP2;P2;SDS_P1;SDS_P2;PMS_P1;PMS_P2;Temp;Humidity;BMP_temperature;BMP_pressure;BME280_temperature;BME280_humidity;BME280_pressure;Samples;Min_cycle;Max_cycle;Signal;HPM_P1;HPM_P2
2022/11/26 00:00:47;;;;;;;3.40;3.20;;;5.10;99.90;;;;;;5026806;28;20232;-76
2022/11/26 00:03:15;;;;;;;4.30;4.00;;;5.10;99.90;;;;;;5025190;28;20577;-79
2022/11/26 00:05:44;;;;;;;3.22;3.03;;;5.10;99.90;;;;;;5026227;28;20223;-76
2022/11/26 00:08:17;;;;;;;3.55;3.35;;;5.10;99.90;;;;;;5028851;28;20198;-76
2022/11/26 00:10:44;;;;;;;3.83;3.60;;;5.10;99.90;;;;;;5024630;28;20200;-76
2022/11/26 00:13:20;;;;;;;3.97;3.65;;;5.10;99.90;;;;;;5025275;28;20196;-79
2022/11/26 00:15:47;;;;;;;3.88;3.58;;;5.10;99.90;;;;;;5028429;28;20234;-76
2022/11/26 00:18:15;;;;;;;3.60;3.40;;;5.10;99.90;;;;;;5025020;28;20200;-76
2022/11/26 00:20:43;;;;;;;3.35;3.15;;;5.10;99.90;;;;;;5031503;28;20211;-75
2022/11/26 00:23:19;;;;;;;4.18;3.88;;;5.10;99.90;;;;;;5030619;28;20706;-73
2022/11/26 00:25:48;;;;;;;3.83;3.53;;;5.00;99.90;;;;;;5028395;28;20582;-73
2022/11/26 00:28:28;;;;;;;3.65;3.40;;;5.00;99.90;;;;;;5028748;28;20207;-75
2022/11/26 00:30:58;;;;;;;3.58;3.33;;;5.00;99.90;;;;;;5027022;28;20220;-72
2022/11/26 00:33:26;;;;;;;3.72;3.42;;;5.00;99.90;;;;;;5027341;28;20191;-72
2022/11/26 00:35:57;;;;;;;3.35;3.15;;;4.90;99.90;;;;;;5029690;28;20310;-78
2022/11/26 00:38:25;;;;;;;3.83;3.60;;;4.80;99.90;;;;;;5032180;28;20210;-74
2022/11/26 00:40:52;;;;;;;4.07;3.78;;;4.70;99.90;;;;;;5029677;28;20961;-74
2022/11/26 00:43:19;;;;;;;3.45;3.17;;;4.70;99.90;;;;;;5030980;28;20204;-71
2022/11/26 00:45:49;;;;;;;4.00;3.70;;;4.70;99.90;;;;;;5030888;28;20242;-77
2022/11/26 00:48:16;;;;;;;3.47;3.28;;;4.80;99.90;;;;;;5027991;28;20728;-76
2022/11/26 00:50:47;;;;;;;3.53;3.33;;;4.80;99.90;;;;;;5031068;28;20198;-77
2022/11/26 00:53:17;;;;;;;3.85;3.55;;;4.80;99.90;;;;;;5028940;28;20195;-74
2022/11/26 00:55:47;;;;;;;3.22;3.03;;;4.80;99.90;;;;;;5030556;28;20589;-74
2022/11/26 00:58:23;;;;;;;3.30;3.10;;;4.80;99.90;;;;;;5029602;28;20203;-76
2022/11/26 01:00:53;;;;;;;3.38;3.17;;;4.80;99.90;;;;;;5030969;28;20223;-74
2022/11/26 01:03:20;;;;;;;3.58;3.28;;;4.80;99.90;;;;;;5030590;28;20199;-77
2022/11/26 01:05:50;;;;;;;3.20;3.00;;;4.80;99.90;;;;;;5028296;28;20238;-77
2022/11/26 01:08:26;;;;;;;3.70;3.38;;;4.80;99.90;;;;;;5028452;28;20277;-72
2022/11/26 01:10:53;;;;;;;3.45;3.17;;;4.80;99.90;;;;;;5030644;28;20633;-74
2022/11/26 01:13:20;;;;;;;3.28;3.08;;;4.80;99.90;;;;;;5031705;28;20216;-79
2022/11/26 01:15:47;;;;;;;3.25;3.05;;;4.80;99.90;;;;;;5029244;28;20263;-78
2022/11/26 01:18:18;;;;;;;3.60;3.40;;;4.80;99.90;;;;;;5039175;28;20210;-74
2022/11/26 01:20:45;;;;;;;3.20;3.00;;;4.80;99.90;;;;;;5029199;28;20215;-74
2022/11/26 01:23:15;;;;;;;3.40;3.20;;;4.80;99.90;;;;;;5029346;28;20211;-78
2022/11/26 01:25:42;;;;;;;2.92;2.83;;;4.80;99.90;;;;;;5029188;28;20226;-75
2022/11/26 01:28:12;;;;;;;3.17;2.97;;;4.80;99.90;;;;;;5028098;28;20207;-77
2022/11/26 01:30:41;;;;;;;3.13;2.92;;;4.80;99.90;;;;;;5028572;28;20198;-73
2022/11/26 01:33:08;;;;;;;2.88;2.72;;;4.80;99.90;;;;;;5029188;28;20223;-77
2022/11/26 01:35:37;;;;;;;3.25;3.03;;;4.80;99.90;;;;;;5031359;28;20218;-78
2022/11/26 01:38:04;;;;;;;3.10;2.90;;;4.80;99.90;;;;;;5031786;28;20211;-73
2022/11/26 01:40:54;;;;;;;3.60;3.40;;;4.70;99.90;;;;;;5030140;28;20203;-72
2022/11/26 01:43:26;;;;;;;3.20;3.00;;;4.70;99.90;;;;;;5026631;28;20203;-74
2022/11/26 01:45:55;;;;;;;3.00;2.80;;;4.70;99.90;;;;;;5031871;28;20227;-74
2022/11/26 01:48:31;;;;;;;3.28;3.08;;;4.70;99.90;;;;;;5025336;28;20206;-74
2022/11/26 01:51:02;;;;;;;3.28;3.08;;;4.70;99.90;;;;;;5028340;28;20215;-75
2022/11/26 01:53:39;;;;;;;3.75;3.55;;;4.60;99.90;;;;;;5029744;28;20195;-74
2022/11/26 01:56:17;;;;;;;3.75;3.45;;;4.50;99.90;;;;;;5025637;28;20255;-74
2022/11/26 01:58:48;;;;;;;3.30;3.10;;;4.50;99.90;;;;;;5031464;28;20211;-73
2022/11/26 02:01:16;;;;;;;2.88;2.67;;;4.50;99.90;;;;;;5025819;28;20234;-77
2022/11/26 02:03:49;;;;;;;3.03;2.88;;;4.50;99.90;;;;;;5028318;28;20208;-77
2022/11/26 02:06:22;;;;;;;3.33;3.13;;;4.50;99.90;;;;;;5025888;28;20226;-74
2022/11/26 02:08:50;;;;;;;3.35;3.15;;;4.60;99.90;;;;;;5028394;28;20200;-75
2022/11/26 02:11:19;;;;;;;3.25;3.05;;;4.60;99.90;;;;;;5027664;28;20215;-74
2022/11/26 02:13:48;;;;;;;3.00;2.80;;;4.60;99.90;;;;;;5028522;28;20202;-74
2022/11/26 02:16:45;;;;;;;3.22;2.95;;;4.60;99.90;;;;;;5028696;28;20215;-75
2022/11/26 02:19:43;;;;;;;3.20;3.00;;;4.60;99.90;;;;;;5028188;28;20278;-74
2022/11/26 02:22:32;;;;;;;3.30;3.10;;;4.60;99.90;;;;;;5026407;28;20219;-76
2022/11/26 02:25:13;;;;;;;3.15;2.95;;;4.60;99.90;;;;;;5028824;28;20192;-78
2022/11/26 02:28:00;;;;;;;3.50;3.30;;;4.60;99.90;;;;;;5028543;28;20706;-75
2022/11/26 02:30:31;;;;;;;3.08;2.95;;;4.60;99.90;;;;;;5028141;28;20210;-74
2022/11/26 02:33:02;;;;;;;3.35;3.15;;;4.50;99.90;;;;;;5026171;28;20215;-75
2022/11/26 02:35:36;;;;;;;3.45;3.25;;;4.50;99.90;;;;;;5030537;28;20223;-77
2022/11/26 02:38:07;;;;;;;3.30;3.10;;;4.50;99.90;;;;;;5029615;28;20203;-81
2022/11/26 02:40:35;;;;;;;3.10;2.90;;;4.50;99.90;;;;;;5030326;28;20666;-77
2022/11/26 02:43:02;;;;;;;2.88;2.67;;;4.60;99.90;;;;;;5028141;28;20722;-76
2022/11/26 02:45:34;;;;;;;3.13;2.92;;;4.60;99.90;;;;;;5028734;28;20223;-74
2022/11/26 02:48:04;;;;;;;3.10;2.90;;;4.60;99.90;;;;;;5028567;28;20203;-76
2022/11/26 02:50:36;;;;;;;3.53;3.33;;;4.50;99.90;;;;;;5025360;28;20662;-76
2022/11/26 02:53:05;;;;;;;3.20;3.00;;;4.50;99.90;;;;;;5028201;28;20207;-80
2022/11/26 02:55:36;;;;;;;3.25;3.05;;;4.50;99.90;;;;;;5025494;28;20606;-77
2022/11/26 02:58:03;;;;;;;3.20;3.00;;;4.50;99.90;;;;;;5025559;28;20204;-78
2022/11/26 03:00:32;;;;;;;3.15;2.85;;;4.50;99.90;;;;;;5027187;28;20200;-74
2022/11/26 03:03:03;;;;;;;2.90;2.70;;;4.40;99.90;;;;;;5024487;28;20223;-75
2022/11/26 03:05:34;;;;;;;3.20;3.00;;;4.50;99.90;;;;;;5024803;28;20234;-77
2022/11/26 03:08:05;;;;;;;3.20;3.00;;;4.50;99.90;;;;;;5023054;28;20203;-76
2022/11/26 03:10:32;;;;;;;3.05;2.90;;;4.50;99.90;;;;;;5024592;28;20200;-79
2022/11/26 03:12:59;;;;;;;3.28;3.08;;;4.50;99.90;;;;;;5031264;28;20191;-77
2022/11/26 03:15:26;;;;;;;3.20;3.00;;;4.50;99.90;;;;;;5026695;28;20234;-79
2022/11/26 03:17:55;;;;;;;3.40;3.20;;;4.50;99.90;;;;;;5023263;28;20446;-77
2022/11/26 03:20:22;;;;;;;3.22;3.03;;;4.50;99.90;;;;;;5019214;28;20208;-74
2022/11/26 03:22:49;;;;;;;3.20;3.00;;;4.50;99.90;;;;;;5022121;28;20227;-77
2022/11/26 03:25:16;;;;;;;3.05;2.95;;;4.50;99.90;;;;;;5027426;28;20200;-76
2022/11/26 03:27:43;;;;;;;2.85;2.75;;;4.50;99.90;;;;;;5022924;28;20227;-72
2022/11/26 03:30:11;;;;;;;2.85;2.75;;;4.50;99.90;;;;;;5027211;28;20199;-75
2022/11/26 03:32:38;;;;;;;3.05;2.85;;;4.50;99.90;;;;;;5022713;28;20653;-76
2022/11/26 03:35:08;;;;;;;2.95;2.75;;;4.50;99.90;;;;;;5027897;28;20210;-75
2022/11/26 03:37:35;;;;;;;3.00;2.90;;;4.50;99.90;;;;;;5025650;28;20223;-75
2022/11/26 03:40:02;;;;;;;3.30;3.10;;;4.50;99.90;;;;;;5026122;28;20199;-75
2022/11/26 03:42:29;;;;;;;3.10;2.95;;;4.50;99.90;;;;;;5024647;28;20223;-75
2022/11/26 03:44:56;;;;;;;3.03;2.83;;;4.50;99.90;;;;;;5027567;28;20202;-73
2022/11/26 03:47:23;;;;;;;3.08;2.97;;;4.50;99.90;;;;;;5024417;28;20239;-77
2022/11/26 03:49:50;;;;;;;3.10;2.90;;;4.40;99.90;;;;;;5027727;28;20203;-75
2022/11/26 03:52:19;;;;;;;3.20;3.00;;;4.40;99.90;;;;;;5028163;28;20592;-76
2022/11/26 03:54:46;;;;;;;3.20;3.00;;;4.40;99.90;;;;;;5026164;28;20221;-77
2022/11/26 03:57:13;;;;;;;2.88;2.78;;;4.40;99.90;;;;;;5027982;28;20314;-78
2022/11/26 03:59:40;;;;;;;2.50;2.40;;;4.40;99.90;;;;;;5026735;28;20202;-76
2022/11/26 04:02:07;;;;;;;3.10;3.00;;;4.50;99.90;;;;;;5025866;28;20231;-74
2022/11/26 04:04:34;;;;;;;3.25;3.15;;;4.50;99.90;;;;;;5028788;28;20200;-73
2022/11/26 04:07:01;;;;;;;2.65;2.55;;;4.50;99.90;;;;;;5026380;28;21006;-76
2022/11/26 04:09:30;;;;;;;3.05;2.85;;;4.50;99.90;;;;;;5029428;28;20195;-75
2022/11/26 04:11:57;;;;;;;3.03;2.83;;;4.50;99.90;;;;;;5027842;28;20277;-72
2022/11/26 04:14:24;;;;;;;2.85;2.75;;;4.50;99.90;;;;;;5026890;28;20802;-74
2022/11/26 04:16:51;;;;;;;3.08;2.88;;;4.50;99.90;;;;;;5027734;28;20645;-74
2022/11/26 04:19:18;;;;;;;3.05;2.85;;;4.50;99.90;;;;;;5028727;28;20195;-73
2022/11/26 04:21:45;;;;;;;2.67;2.58;;;4.50;99.90;;;;;;5022834;28;20247;-76
2022/11/26 04:24:12;;;;;;;3.05;2.85;;;4.50;99.90;;;;;;5028209;28;20534;-75
2022/11/26 04:26:41;;;;;;;4.38;2.88;;;4.50;99.90;;;;;;5024889;28;20223;-75
2022/11/26 04:29:08;;;;;;;2.92;2.72;;;4.50;99.90;;;;;;5024705;28;20736;-76
2022/11/26 04:31:35;;;;;;;2.47;2.38;;;4.50;99.90;;;;;;5024517;28;20702;-74
2022/11/26 04:34:02;;;;;;;2.70;2.60;;;4.50;99.90;;;;;;5027385;28;20199;-77
2022/11/26 04:36:29;;;;;;;3.10;2.90;;;4.50;99.90;;;;;;5026052;28;20273;-76
2022/11/26 04:38:57;;;;;;;2.97;2.78;;;4.50;99.90;;;;;;5025922;28;20199;-77
2022/11/26 04:41:24;;;;;;;2.50;2.40;;;4.50;99.90;;;;;;5031063;28;20218;-77
2022/11/26 04:43:53;;;;;;;2.40;2.30;;;4.60;99.90;;;;;;5024689;28;20665;-74
2022/11/26 04:46:20;;;;;;;2.40;2.30;;;4.60;99.90;;;;;;5022114;28;20224;-74
2022/11/26 04:48:47;;;;;;;2.70;2.60;;;4.60;99.90;;;;;;5025383;28;20192;-74
2022/11/26 04:51:14;;;;;;;2.78;2.67;;;4.60;99.90;;;;;;5022796;28;20227;-79
2022/11/26 04:53:41;;;;;;;2.33;2.22;;;4.60;99.90;;;;;;5021654;28;20593;-78
2022/11/26 04:56:08;;;;;;;2.53;2.42;;;4.60;99.90;;;;;;5025087;28;20227;-76
2022/11/26 04:58:35;;;;;;;3.05;2.85;;;4.60;99.90;;;;;;5027577;28;20198;-77
2022/11/26 05:01:04;;;;;;;2.58;2.47;;;4.60;99.90;;;;;;5022277;28;20228;-75
2022/11/26 05:03:31;;;;;;;2.50;2.40;;;4.70;99.90;;;;;;5023793;28;20223;-74
2022/11/26 05:05:58;;;;;;;2.83;2.63;;;4.60;99.90;;;;;;5025156;28;20223;-76
2022/11/26 05:08:25;;;;;;;2.92;2.72;;;4.60;99.90;;;;;;5028616;28;20613;-73
2022/11/26 05:10:54;;;;;;;2.72;2.63;;;4.50;99.90;;;;;;5025337;28;20931;-76
2022/11/26 05:13:21;;;;;;;2.95;2.85;;;4.50;99.90;;;;;;5021659;28;20279;-74
2022/11/26 05:15:48;;;;;;;2.72;2.53;;;4.40;99.90;;;;;;5025419;28;20239;-74
2022/11/26 05:18:17;;;;;;;3.35;3.15;;;4.40;99.90;;;;;;5023151;28;20200;-73
2022/11/26 05:20:44;;;;;;;3.20;2.90;;;4.40;99.90;;;;;;5026806;28;20215;-75
2022/11/26 05:23:11;;;;;;;3.30;3.10;;;4.30;99.90;;;;;;5029167;28;20219;-78
2022/11/26 05:25:38;;;;;;;2.90;2.70;;;4.30;99.90;;;;;;5027237;28;20227;-74
2022/11/26 05:28:05;;;;;;;2.65;2.45;;;4.40;99.90;;;;;;5029466;28;20817;-73
2022/11/26 05:30:32;;;;;;;2.72;2.63;;;4.30;99.90;;;;;;5026103;28;20200;-76
2022/11/26 05:32:59;;;;;;;2.90;2.80;;;4.30;99.90;;;;;;5027901;28;20199;-76
2022/11/26 05:35:28;;;;;;;2.92;2.72;;;4.30;99.90;;;;;;5028951;28;20215;-77
2022/11/26 05:37:55;;;;;;;2.78;2.60;;;4.20;99.90;;;;;;5026610;28;20228;-71
2022/11/26 05:40:22;;;;;;;3.25;3.05;;;4.20;99.90;;;;;;5025287;28;20693;-75
2022/11/26 05:42:49;;;;;;;3.50;3.30;;;4.20;99.90;;;;;;5027922;28;20250;-77
2022/11/26 05:45:16;;;;;;;3.10;2.90;;;4.20;99.90;;;;;;5030858;28;20192;-73
2022/11/26 05:47:43;;;;;;;2.92;2.72;;;4.30;99.90;;;;;;5026186;28;20226;-72
2022/11/26 05:50:11;;;;;;;2.47;2.30;;;4.30;99.90;;;;;;5028483;28;20206;-73
2022/11/26 05:52:40;;;;;;;3.00;2.80;;;4.30;99.90;;;;;;5027751;28;20222;-75
2022/11/26 05:55:08;;;;;;;3.25;3.05;;;4.40;99.90;;;;;;5029775;28;20196;-74
2022/11/26 05:57:36;;;;;;;2.75;2.63;;;4.40;99.90;;;;;;5028381;28;20216;-77
2022/11/26 06:00:04;;;;;;;2.97;2.75;;;4.30;99.90;;;;;;5025623;28;20207;-77
2022/11/26 06:02:31;;;;;;;2.75;2.65;;;4.40;99.90;;;;;;5021569;28;20219;-73
2022/11/26 06:04:59;;;;;;;2.75;2.65;;;4.30;99.90;;;;;;5028253;28;21892;-77
2022/11/26 06:07:26;;;;;;;3.50;3.20;;;4.40;99.90;;;;;;5026722;28;20243;-75
2022/11/26 06:09:54;;;;;;;2.80;2.70;;;4.40;99.90;;;;;;5028098;28;20934;-75
2022/11/26 06:12:21;;;;;;;2.58;2.47;;;4.50;99.90;;;;;;5026940;28;20219;-75
2022/11/26 06:14:48;;;;;;;3.58;3.30;;;4.50;99.90;;;;;;5028013;28;20196;-75
2022/11/26 06:17:15;;;;;;;3.20;2.92;;;4.50;99.90;;;;;;5024242;28;20224;-74
2022/11/26 06:19:42;;;;;;;2.90;2.80;;;4.50;99.90;;;;;;5028536;28;20253;-72
2022/11/26 06:22:09;;;;;;;2.80;2.70;;;4.50;99.90;;;;;;5029558;28;20764;-73
2022/11/26 06:24:37;;;;;;;3.00;2.90;;;4.40;99.90;;;;;;5029656;28;20195;-73
2022/11/26 06:27:05;;;;;;;3.10;2.90;;;4.40;99.90;;;;;;5027980;28;20227;-76
2022/11/26 06:29:32;;;;;;;2.50;2.40;;;4.40;99.90;;;;;;5027894;28;20211;-77
2022/11/26 06:31:59;;;;;;;2.72;2.63;;;4.40;99.90;;;;;;5024097;28;20266;-74
2022/11/26 06:34:26;;;;;;;2.75;2.65;;;4.50;99.90;;;;;;5029866;28;20196;-77
2022/11/26 06:36:53;;;;;;;3.05;2.88;;;4.50;99.90;;;;;;5028820;28;20227;-76
2022/11/26 06:39:20;;;;;;;2.88;2.78;;;4.60;99.90;;;;;;5030051;28;20200;-77
2022/11/26 06:41:47;;;;;;;3.42;3.15;;;4.70;99.90;;;;;;5028466;28;20566;-73
2022/11/26 06:44:16;;;;;;;2.80;2.70;;;4.80;99.90;;;;;;5026749;28;20222;-75
2022/11/26 06:46:43;;;;;;;2.63;2.53;;;4.80;99.90;;;;;;5027837;28;20720;-74
2022/11/26 06:49:10;;;;;;;3.05;2.90;;;4.70;99.90;;;;;;5027661;28;20199;-76
2022/11/26 06:51:37;;;;;;;2.70;2.60;;;4.70;99.90;;;;;;5025272;28;20231;-76
2022/11/26 06:54:05;;;;;;;3.05;2.95;;;4.60;99.90;;;;;;5027821;28;20580;-76
2022/11/26 06:56:34;;;;;;;2.53;2.42;;;4.60;99.90;;;;;;5029939;28;20219;-76
2022/11/26 06:59:01;;;;;;;3.40;3.20;;;4.60;99.90;;;;;;5030221;28;20199;-72
2022/11/26 07:01:29;;;;;;;2.92;2.72;;;4.70;99.90;;;;;;5027273;28;20661;-73
2022/11/26 07:03:57;;;;;;;2.75;2.63;;;4.70;99.90;;;;;;5032576;28;20227;-74
2022/11/26 07:06:25;;;;;;;3.38;3.17;;;4.70;99.90;;;;;;5020761;28;20223;-73
2022/11/26 07:08:54;;;;;;;3.10;2.90;;;4.80;99.90;;;;;;5023253;28;20220;-74
2022/11/26 07:11:23;;;;;;;3.50;3.30;;;4.80;99.90;;;;;;5023424;28;20219;-77
2022/11/26 07:13:50;;;;;;;3.97;3.65;;;4.80;99.90;;;;;;5025127;28;20206;-75
2022/11/26 07:16:17;;;;;;;3.10;2.90;;;4.90;99.90;;;;;;5026190;28;20278;-74
2022/11/26 07:18:49;;;;;;;2.97;2.88;;;4.90;99.90;;;;;;5022048;28;20931;-73
2022/11/26 07:21:17;;;;;;;3.40;3.20;;;4.90;99.90;;;;;;5025153;28;20579;-75
2022/11/26 07:23:44;;;;;;;3.30;3.13;;;4.90;99.90;;;;;;5020751;28;20586;-77
2022/11/26 07:26:13;;;;;;;3.10;2.90;;;5.00;99.90;;;;;;5029591;28;20250;-73
2022/11/26 07:28:41;;;;;;;2.97;2.78;;;4.90;99.90;;;;;;5030271;28;20212;-75
2022/11/26 07:31:10;;;;;;;3.42;3.22;;;4.90;99.90;;;;;;5030886;28;20211;-76
2022/11/26 07:33:38;;;;;;;3.63;3.28;;;4.90;99.90;;;;;;5031149;28;21520;-74
2022/11/26 07:36:09;;;;;;;3.40;3.20;;;4.90;99.90;;;;;;5031280;28;20231;-76
2022/11/26 07:38:36;;;;;;;3.20;3.10;;;4.90;99.90;;;;;;5032535;28;20192;-76
2022/11/26 07:41:04;;;;;;;3.63;3.42;;;4.80;99.90;;;;;;5025232;28;20595;-74
2022/11/26 07:43:33;;;;;;;3.22;3.03;;;4.90;99.90;;;;;;5027612;28;20219;-75
2022/11/26 07:46:02;;;;;;;3.60;3.40;;;4.90;99.90;;;;;;5027265;28;20238;-77
2022/11/26 07:48:30;;;;;;;3.45;3.25;;;4.90;99.90;;;;;;5025551;28;20195;-78
2022/11/26 07:50:57;;;;;;;3.60;3.28;;;5.00;99.90;;;;;;5027390;28;20281;-76
2022/11/26 07:53:28;;;;;;;3.45;3.25;;;4.90;99.90;;;;;;5028837;28;20203;-73
2022/11/26 07:55:55;;;;;;;3.65;3.45;;;4.90;99.90;;;;;;5024885;28;20715;-73
2022/11/26 07:58:22;;;;;;;3.92;3.65;;;4.90;99.90;;;;;;5027038;28;20207;-75
2022/11/26 08:00:49;;;;;;;3.95;3.65;;;5.00;99.90;;;;;;5028616;28;20380;-72
2022/11/26 08:03:17;;;;;;;3.10;2.90;;;5.80;99.90;;;;;;5023237;28;20223;-72
2022/11/26 08:05:45;;;;;;;3.40;3.17;;;7.00;99.90;;;;;;5025296;28;20224;-70
2022/11/26 08:08:12;;;;;;;4.47;4.07;;;8.00;99.90;;;;;;5026309;28;20210;-75
2022/11/26 08:10:41;;;;;;;3.97;3.67;;;8.80;99.90;;;;;;5026827;28;20203;-73
2022/11/26 08:13:08;;;;;;;3.63;3.33;;;9.70;99.90;;;;;;5026932;28;20294;-72
2022/11/26 08:15:36;;;;;;;3.33;3.08;;;10.40;99.90;;;;;;5026499;28;20235;-75
2022/11/26 08:18:03;;;;;;;3.05;2.80;;;11.10;99.90;;;;;;5027696;28;20208;-73
2022/11/26 08:20:30;;;;;;;3.35;2.90;;;11.60;99.90;;;;;;5021784;28;20191;-74
2022/11/26 08:22:57;;;;;;;3.20;3.00;;;12.00;99.90;;;;;;5019470;28;20956;-77
2022/11/26 08:25:25;;;;;;;3.10;2.90;;;12.50;99.90;;;;;;5019750;28;20223;-76
2022/11/26 08:27:53;;;;;;;3.42;3.22;;;13.00;99.90;;;;;;5019494;28;20285;-79
2022/11/26 08:30:20;;;;;;;3.10;2.83;;;13.50;99.90;;;;;;5021821;28;20816;-78
2022/11/26 08:32:47;;;;;;;3.55;2.95;;;13.70;99.90;;;;;;5019825;28;20346;-79
2022/11/26 08:35:15;;;;;;;4.78;3.05;;;14.00;99.90;;;;;;5019090;28;20287;-81
2022/11/26 08:37:42;;;;;;;3.10;2.85;;;14.10;99.90;;;;;;5020424;28;20304;-73
2022/11/26 08:40:10;;;;;;;3.80;3.17;;;14.20;99.90;;;;;;5018841;28;20234;-78
2022/11/26 08:42:37;;;;;;;3.85;3.38;;;14.20;99.90;;;;;;5019550;28;20223;-74
2022/11/26 08:45:06;;;;;;;3.55;3.28;;;14.30;99.90;;;;;;5016661;28;20204;-76
2022/11/26 08:47:33;;;;;;;3.55;3.25;;;14.50;99.90;;;;;;5022601;28;20224;-78
2022/11/26 08:50:00;;;;;;;4.32;3.80;;;14.40;99.90;;;;;;5018752;28;20199;-77
2022/11/26 08:52:28;;;;;;;3.95;3.50;;;14.30;99.90;;;;;;5022868;28;20227;-80
2022/11/26 08:54:55;;;;;;;3.80;3.38;;;14.10;99.90;;;;;;5024649;28;20196;-78
2022/11/26 08:57:22;;;;;;;3.72;3.42;;;14.20;99.90;;;;;;5031021;28;20242;-76
2022/11/26 08:59:50;;;;;;;3.28;2.97;;;14.40;99.90;;;;;;5024473;28;20516;-75
2022/11/26 09:02:19;;;;;;;3.17;2.75;;;14.60;99.90;;;;;;5022088;28;20220;-75
2022/11/26 09:04:46;;;;;;;3.28;2.97;;;15.70;99.90;;;;;;5024372;28;20261;-75
2022/11/26 09:07:13;;;;;;;3.20;2.90;;;17.30;99.90;;;;;;5025911;28;20223;-75
2022/11/26 09:09:40;;;;;;;2.80;2.60;;;18.90;99.90;;;;;;5023672;28;20975;-76
2022/11/26 09:12:07;;;;;;;3.63;2.70;;;20.70;96.70;;;;;;5024755;28;20226;-75
2022/11/26 09:14:36;;;;;;;3.25;2.85;;;22.20;91.90;;;;;;5018211;28;20192;-78
2022/11/26 09:17:04;;;;;;;3.47;2.90;;;23.60;85.70;;;;;;5017496;28;20721;-79
2022/11/26 09:19:33;;;;;;;2.95;2.50;;;24.60;78.90;;;;;;5026104;28;20254;-80
2022/11/26 09:22:01;;;;;;;5.07;2.83;;;25.50;72.30;;;;;;5021701;28;20248;-75
2022/11/26 09:24:28;;;;;;;2.85;2.60;;;25.80;66.60;;;;;;5025224;28;20250;-74
2022/11/26 09:26:55;;;;;;;4.85;3.28;;;26.10;65.80;;;;;;5019792;28;20230;-75
2022/11/26 09:29:24;;;;;;;3.20;2.85;;;26.30;63.80;;;;;;5021112;28;20869;-73
2022/11/26 09:31:51;;;;;;;3.70;3.40;;;26.20;63.90;;;;;;5022140;28;20289;-75
2022/11/26 09:34:19;;;;;;;4.35;3.47;;;26.00;63.50;;;;;;5021798;28;20339;-83
2022/11/26 09:36:47;;;;;;;3.90;3.42;;;25.70;64.00;;;;;;5023381;28;20223;-82
2022/11/26 09:39:14;;;;;;;3.67;3.22;;;25.10;62.90;;;;;;5020638;28;20226;-79
2022/11/26 09:41:48;;;;;;;3.70;3.40;;;23.50;67.40;;;;;;5020144;28;20223;-77
2022/11/26 09:44:27;;;;;;;4.22;3.50;;;22.00;71.80;;;;;;5018069;28;20237;-77
2022/11/26 09:47:04;;;;;;;4.28;3.88;;;20.90;76.30;;;;;;5022497;28;20234;-75
2022/11/26 09:49:36;;;;;;;3.45;3.00;;;20.00;79.20;;;;;;5021056;28;20206;-76
2022/11/26 09:52:07;;;;;;;3.45;3.15;;;19.20;83.00;;;;;;5021118;28;20231;-75
2022/11/26 09:54:34;;;;;;;2.97;2.70;;;18.90;85.90;;;;;;5022410;28;20180;-74
2022/11/26 09:57:17;;;;;;;3.17;2.83;;;18.50;87.60;;;;;;5019493;28;20220;-81
2022/11/26 09:59:48;;;;;;;4.25;3.33;;;18.20;88.30;;;;;;5016528;28;20197;-77
2022/11/26 10:02:16;;;;;;;4.68;3.60;;;18.30;90.00;;;;;;5024779;28;20222;-80
2022/11/26 10:04:43;;;;;;;3.45;3.13;;;18.10;90.40;;;;;;5025986;28;20211;-76
2022/11/26 10:07:36;;;;;;;7.20;3.20;;;18.10;90.60;;;;;;5019399;28;20613;-78
2022/11/26 10:10:13;;;;;;;3.17;2.67;;;18.10;90.20;;;;;;5019110;28;20207;-83
2022/11/26 10:12:51;;;;;;;2.50;2.30;;;18.10;90.00;;;;;;5016853;28;20224;-83
2022/11/26 10:15:27;;;;;;;2.30;2.10;;;18.00;88.90;;;;;;5021767;28;20188;-77
2022/11/26 10:18:03;;;;;;;2.50;2.30;;;18.10;90.60;;;;;;5023850;28;20215;-77
2022/11/26 10:20:56;;;;;;;2.55;2.30;;;18.30;90.50;;;;;;5022595;28;20203;-76
2022/11/26 10:23:31;;;;;;;2.30;2.03;;;18.40;90.50;;;;;;5011153;28;20570;-82
2022/11/26 10:26:05;;;;;;;3.03;2.67;;;18.80;89.30;;;;;;5019554;28;20250;-85
2022/11/26 10:28:38;;;;;;;2.70;2.50;;;18.90;88.40;;;;;;5021604;28;20633;-79
2022/11/26 10:31:09;;;;;;;2.63;2.42;;;18.90;89.10;;;;;;5015944;28;20226;-76
2022/11/26 10:33:44;;;;;;;2.15;1.95;;;18.70;86.80;;;;;;5025386;28;20188;-76
2022/11/26 10:36:22;;;;;;;2.83;2.25;;;18.20;88.00;;;;;;5023145;28;20225;-77
2022/11/26 10:38:51;;;;;;;2.08;1.92;;;18.10;88.10;;;;;;5024760;28;20196;-78
2022/11/26 10:41:20;;;;;;;2.20;2.00;;;18.10;89.50;;;;;;5024326;28;20569;-83
2022/11/26 10:43:47;;;;;;;2.15;1.95;;;18.00;88.40;;;;;;5025554;28;20238;-76
2022/11/26 10:46:32;;;;;;;2.78;2.28;;;18.00;89.40;;;;;;5022165;28;20224;-83
2022/11/26 10:49:21;;;;;;;2.30;2.10;;;18.20;87.20;;;;;;5029239;28;20195;-84
2022/11/26 10:51:50;;;;;;;3.13;2.30;;;18.20;86.10;;;;;;5027719;28;20223;-77
2022/11/26 10:54:33;;;;;;;3.70;2.20;;;18.40;88.90;;;;;;5023531;28;20205;-87
2022/11/26 10:57:06;;;;;;;2.70;2.50;;;18.40;86.00;;;;;;5023549;28;20259;-77
2022/11/26 10:59:39;;;;;;;2.20;2.00;;;18.40;87.00;;;;;;5022736;28;20207;-81
2022/11/26 11:02:27;;;;;;;2.17;1.98;;;18.40;86.30;;;;;;5019762;28;20221;-82
2022/11/26 11:04:57;;;;;;;2.20;2.00;;;18.30;83.80;;;;;;5020619;28;20226;-78
2022/11/26 11:07:40;;;;;;;2.28;2.08;;;18.20;86.60;;;;;;5016082;28;20230;-81
2022/11/26 11:10:15;;;;;;;2.40;2.20;;;18.30;85.80;;;;;;5024646;28;20200;-78
2022/11/26 11:12:45;;;;;;;2.47;2.28;;;18.40;85.40;;;;;;5022184;28;20219;-85
2022/11/26 11:15:24;;;;;;;2.10;1.90;;;18.40;85.80;;;;;;5020819;28;20674;-80
2022/11/26 11:18:00;;;;;;;2.65;1.95;;;18.40;83.00;;;;;;5020195;28;20218;-76
2022/11/26 11:20:33;;;;;;;2.28;2.08;;;18.30;84.70;;;;;;5019752;28;20199;-77
2022/11/26 11:23:17;;;;;;;2.10;1.85;;;18.10;85.00;;;;;;5020901;28;20230;-78
2022/11/26 11:25:56;;;;;;;2.20;1.80;;;18.00;85.30;;;;;;5016444;28;20224;-80
2022/11/26 11:28:26;;;;;;;2.00;1.70;;;18.30;85.20;;;;;;5023315;28;20203;-81
2022/11/26 11:31:02;;;;;;;1.70;1.60;;;18.60;85.20;;;;;;5021374;28;20223;-78
2022/11/26 11:33:29;;;;;;;1.80;1.70;;;18.60;83.60;;;;;;5022933;28;20210;-77
2022/11/26 11:36:06;;;;;;;1.83;1.73;;;18.60;83.60;;;;;;5020906;28;20592;-79
2022/11/26 11:38:46;;;;;;;2.28;1.80;;;18.30;81.60;;;;;;5022647;28;20196;-77
2022/11/26 11:41:25;;;;;;;1.80;1.50;;;18.20;82.50;;;;;;5017690;28;20330;-76
2022/11/26 11:43:58;;;;;;;1.83;1.70;;;17.90;82.90;;;;;;5021285;28;20846;-75
2022/11/26 11:46:51;;;;;;;1.30;1.20;;;17.70;83.80;;;;;;5021203;28;20218;-75
2022/11/26 11:49:32;;;;;;;2.30;2.10;;;17.80;82.10;;;;;;5019705;28;20522;-76
2022/11/26 11:52:12;;;;;;;1.83;1.73;;;17.90;83.10;;;;;;5014139;28;20215;-75
2022/11/26 11:54:47;;;;;;;3.63;1.90;;;17.90;81.10;;;;;;5013400;28;20198;-75
2022/11/26 11:57:23;;;;;;;2.13;1.73;;;17.70;82.70;;;;;;5016470;28;20584;-76
2022/11/26 12:00:12;;;;;;;2.28;2.08;;;17.40;81.30;;;;;;5019552;28;20199;-77
2022/11/26 12:03:09;;;;;;;1.75;1.65;;;17.30;81.90;;;;;;5015747;28;20713;-78
2022/11/26 12:05:55;;;;;;;2.05;1.90;;;17.40;82.50;;;;;;5052968;23;20226;-87
2022/11/26 12:08:38;;;;;;;2.35;1.80;;;17.30;83.00;;;;;;5048576;28;20203;-85
2022/11/26 12:11:29;;;;;;;2.33;2.08;;;17.40;85.10;;;;;;5067204;28;20264;-79
2022/11/26 12:14:02;;;;;;;2.03;1.83;;;17.40;84.60;;;;;;5044848;28;20203;-80
2022/11/26 12:16:34;;;;;;;1.58;1.48;;;17.60;84.20;;;;;;5045777;28;20214;-81
2022/11/26 12:19:06;;;;;;;1.70;1.60;;;17.60;83.60;;;;;;5047174;28;20195;-84
2022/11/26 12:21:39;;;;;;;1.70;1.60;;;17.50;83.70;;;;;;5037795;28;20231;-82
2022/11/26 12:24:15;;;;;;;2.10;1.60;;;17.40;83.90;;;;;;5028621;28;20224;-84
2022/11/26 12:26:47;;;;;;;1.48;1.38;;;17.50;84.00;;;;;;5024750;28;20223;-85
2022/11/26 12:29:24;;;;;;;1.90;1.65;;;17.50;84.20;;;;;;5027369;28;20203;-83
2022/11/26 12:31:55;;;;;;;1.50;1.40;;;17.60;83.80;;;;;;5041529;28;20222;-89
2022/11/26 12:34:28;;;;;;;1.50;1.40;;;17.60;82.80;;;;;;5037569;28;20207;-88
2022/11/26 12:37:00;;;;;;;1.65;1.45;;;17.60;83.10;;;;;;5035890;28;20219;-83
2022/11/26 12:39:38;;;;;;;1.70;1.60;;;17.50;82.10;;;;;;5035292;28;20195;-85
2022/11/26 12:42:15;;;;;;;1.45;1.35;;;17.40;81.30;;;;;;5031042;28;20223;-84
2022/11/26 12:44:49;;;;;;;1.63;1.52;;;17.30;81.40;;;;;;5030735;28;20219;-79
2022/11/26 12:47:24;;;;;;;1.50;1.40;;;17.20;80.50;;;;;;5031207;28;20241;-87
2022/11/26 12:50:05;;;;;;;1.77;1.67;;;17.20;80.10;;;;;;5013929;28;20199;-85
2022/11/26 12:52:39;;;;;;;1.77;1.63;;;17.10;80.40;;;;;;5032368;28;20708;-85
2022/11/26 12:55:19;;;;;;;1.88;1.63;;;16.90;81.30;;;;;;5044324;28;20203;-81
2022/11/26 12:57:51;;;;;;;1.50;1.40;;;16.90;81.50;;;;;;5028163;28;20223;-84
2022/11/26 13:00:25;;;;;;;1.67;1.50;;;17.00;80.20;;;;;;5029531;28;20463;-81
2022/11/26 13:02:52;;;;;;;1.60;1.35;;;17.10;79.00;;;;;;5048766;28;20227;-80
2022/11/26 13:05:26;;;;;;;1.63;1.52;;;17.00;78.50;;;;;;5050758;28;20219;-84
2022/11/26 13:08:12;;;;;;;1.75;1.50;;;17.10;80.20;;;;;;5058220;28;20228;-88
2022/11/26 13:11:06;;;;;;;1.60;1.50;;;17.20;79.60;;;;;;5067519;28;20218;-88